Time;durP1;ratioP1;P1;durP2;ratioP2;P2;SDS_P1;SDS_P2;PMS_P1;PMS_P2;Temp;Humidity;BMP_temperature;BMP_pressure;BME280_temperature;BME280_humidity;BME280_pressure;Samples;Min_cycle;Max_cycle;Signal;HPM_P1;HPM_P2
2022/09/25 00:01:01;;;;;;;8.85;3.15;;;;;;;11.11;66.46;101724.38;5106510;28;19921;-40
2022/09/25 00:03:34;;;;;;;11.43;5.13;;;;;;;11.03;66.58;101717.13;5108268;28;20054;-44
2022/09/25 00:06:10;;;;;;;7.43;3.65;;;;;;;11.00;66.54;101718.22;5109351;28;20054;-43
2022/09/25 00:08:42;;;;;;;13.55;4.43;;;;;;;11.11;66.53;101734.94;5104198;28;20085;-42
2022/09/25 00:11:18;;;;;;;12.43;3.17;;;;;;;11.05;66.38;101733.66;5113003;28;20039;-45
2022/09/25 00:13:52;;;;;;;9.02;3.30;;;;;;;10.95;66.62;101727.50;5111849;28;20398;-36
2022/09/25 00:16:27;;;;;;;9.82;4.18;;;;;;;10.96;66.61;101731.78;5104696;28;20382;-43
2022/09/25 00:21:51;;;;;;;11.25;4.13;;;;;;;10.78;66.73;101721.00;5100085;28;20062;-37
2022/09/25 00:24:24;;;;;;;16.58;3.97;;;;;;;10.81;66.78;101733.97;5107693;28;20497;-42
2022/09/25 00:26:56;;;;;;;9.98;4.57;;;;;;;10.67;66.87;101721.06;5107417;28;20069;-42
2022/09/25 00:29:31;;;;;;;11.65;3.22;;;;;;;10.67;67.00;101734.25;5109064;28;20050;-45
2022/09/25 00:32:04;;;;;;;8.63;3.85;;;;;;;10.63;67.08;101736.34;5103184;28;20061;-45
2022/09/25 00:34:38;;;;;;;9.05;4.20;;;;;;;10.60;67.01;101729.50;5106327;28;20058;-45
2022/09/25 00:37:10;;;;;;;9.98;4.35;;;;;;;10.64;67.16;101742.44;5102997;28;20074;-44
2022/09/25 00:39:43;;;;;;;7.40;3.97;;;;;;;10.56;67.11;101733.38;5107165;28;20523;-43
2022/09/25 00:42:20;;;;;;;9.10;4.32;;;;;;;10.54;67.09;101743.22;5110487;28;20520;-45
2022/09/25 00:45:00;;;;;;;5.82;3.47;;;;;;;10.54;67.21;101737.94;5104446;28;20042;-43
2022/09/25 00:47:58;;;;;;;9.00;4.53;;;;;;;10.50;67.17;101736.53;5111588;28;20058;-43
2022/09/25 00:50:39;;;;;;;8.70;4.15;;;;;;;10.42;67.33;101732.81;5099141;28;20042;-42
2022/09/25 00:53:16;;;;;;;9.70;4.57;;;;;;;10.43;67.36;101745.88;5112329;28;20050;-43
2022/09/25 00:55:50;;;;;;;18.42;5.10;;;;;;;10.31;67.48;101737.19;5104417;28;20399;-44
2022/09/25 00:58:26;;;;;;;10.77;4.45;;;;;;;10.31;67.51;101736.34;5103351;28;20050;-41
2022/09/25 01:01:00;;;;;;;12.35;4.32;;;;;;;10.28;67.61;101729.53;5112645;28;20487;-44
2022/09/25 01:03:33;;;;;;;8.23;4.60;;;;;;;10.20;67.56;101720.53;5107210;28;20481;-45
2022/09/25 01:06:07;;;;;;;17.88;5.30;;;;;;;10.21;67.52;101730.94;5109531;28;20049;-43
2022/09/25 01:08:40;;;;;;;11.35;3.90;;;;;;;10.22;67.74;101737.06;5107507;28;20054;-44
2022/09/25 01:11:13;;;;;;;9.50;3.97;;;;;;;10.14;67.80;101722.69;5097115;28;20047;-42
2022/09/25 01:13:46;;;;;;;11.23;4.50;;;;;;;10.21;67.71;101736.22;5097221;28;20090;-42
2022/09/25 01:16:27;;;;;;;9.65;4.05;;;;;;;10.15;67.81;101727.00;5105435;28;20050;-46
2022/09/25 01:19:15;;;;;;;10.18;4.63;;;;;;;10.09;67.72;101719.59;5107882;28;20100;-36
2022/09/25 01:21:54;;;;;;;10.30;4.28;;;;;;;10.13;67.96;101723.66;5103054;28;20538;-44
2022/09/25 01:25:04;;;;;;;7.43;4.80;;;;;;;10.11;67.98;101730.88;5106184;28;20402;-42
2022/09/25 01:27:51;;;;;;;9.57;4.70;;;;;;;10.08;67.91;101720.56;5091285;28;20059;-45
2022/09/25 01:30:25;;;;;;;9.48;4.05;;;;;;;10.00;68.06;101720.31;5102006;28;20054;-44
2022/09/25 01:33:03;;;;;;;8.07;3.83;;;;;;;9.95;68.08;101717.25;5103743;28;20412;-45
2022/09/25 01:35:45;;;;;;;6.93;3.80;;;;;;;10.06;67.99;101725.09;5112221;28;20042;-45
2022/09/25 01:38:26;;;;;;;11.75;4.28;;;;;;;9.97;68.04;101728.50;5103219;28;20066;-42
2022/09/25 01:41:04;;;;;;;7.43;4.38;;;;;;;9.95;68.12;101730.44;5102800;28;20869;-45
2022/09/25 01:43:40;;;;;;;8.45;4.22;;;;;;;9.87;68.07;101711.75;5106741;28;20042;-43
2022/09/25 01:46:19;;;;;;;10.70;4.68;;;;;;;9.98;68.08;101734.63;5105075;28;20038;-40
2022/09/25 01:49:00;;;;;;;10.50;4.10;;;;;;;9.90;68.21;101724.69;5099792;28;20043;-42
2022/09/25 01:51:39;;;;;;;3.63;3.20;;;;;;;9.89;68.30;101723.84;5098678;28;20456;-44
2022/09/25 01:54:19;;;;;;;8.07;3.70;;;;;;;9.85;68.44;101719.78;5102732;28;20458;-42
2022/09/25 01:56:56;;;;;;;13.07;5.13;;;;;;;9.84;68.37;101719.91;5106590;28;20467;-42
2022/09/25 01:59:35;;;;;;;15.23;4.80;;;;;;;9.88;68.35;101718.72;5103028;28;20142;-45
2022/09/25 02:02:13;;;;;;;16.45;5.18;;;;;;;9.82;68.42;101724.47;5105200;28;20050;-44
2022/09/25 02:04:50;;;;;;;18.35;3.85;;;;;;;9.81;68.30;101720.97;5122162;28;20502;-47
2022/09/25 02:07:34;;;;;;;4.25;3.15;;;;;;;9.86;68.39;101731.19;5099460;28;20050;-45
2022/09/25 02:10:11;;;;;;;14.38;4.35;;;;;;;9.80;68.29;101708.75;5101768;28;20050;-44
2022/09/25 02:12:48;;;;;;;13.85;3.58;;;;;;;9.75;68.55;101696.91;5106151;28;20068;-45
2022/09/25 02:15:25;;;;;;;8.15;4.10;;;;;;;9.80;68.56;101711.41;5107430;28;20046;-43
2022/09/25 02:21:00;;;;;;;7.47;3.78;;;;;;;9.70;68.55;101700.75;5103138;28;20043;-44
2022/09/25 02:23:44;;;;;;;10.30;4.40;;;;;;;9.75;68.55;101718.00;5107590;28;20398;-45
2022/09/25 02:26:24;;;;;;;12.15;3.72;;;;;;;9.78;68.54;101723.03;5100956;28;20439;-41
2022/09/25 02:28:58;;;;;;;6.82;3.47;;;;;;;9.72;68.73;101723.50;5104279;28;20043;-44
2022/09/25 02:31:37;;;;;;;12.07;4.18;;;;;;;9.69;68.63;101719.31;5101726;28;20042;-42
2022/09/25 02:34:12;;;;;;;8.90;3.65;;;;;;;9.80;68.44;101729.03;5101591;28;20395;-41
2022/09/25 02:36:44;;;;;;;10.55;3.58;;;;;;;9.74;68.42;101722.44;5099949;28;20054;-40
2022/09/25 02:39:20;;;;;;;12.43;3.97;;;;;;;9.80;68.49;101732.50;5097035;28;20387;-45
2022/09/25 02:42:20;;;;;;;13.50;3.63;;;;;;;9.85;68.48;101730.34;5096625;28;20120;-42
2022/09/25 02:45:11;;;;;;;9.40;3.70;;;;;;;9.80;68.53;101721.13;5098894;28;20127;-41
2022/09/25 02:47:57;;;;;;;6.82;3.08;;;;;;;9.82;68.41;101724.47;5107707;28;20630;-44
2022/09/25 02:50:42;;;;;;;6.65;3.65;;;;;;;9.85;68.37;101717.16;5098798;28;20482;-42
2022/09/25 02:53:23;;;;;;;8.13;3.22;;;;;;;9.90;68.48;101732.59;5101897;28;20054;-45
2022/09/25 02:56:00;;;;;;;11.80;4.95;;;;;;;9.94;68.27;101728.78;5102631;28;20042;-40
2022/09/25 02:58:35;;;;;;;10.77;4.20;;;;;;;9.97;68.42;101727.66;5101601;28;20050;-45
2022/09/25 03:01:11;;;;;;;9.48;3.72;;;;;;;9.96;68.27;101726.81;5101839;28;20062;-44
2022/09/25 03:03:46;;;;;;;11.18;3.50;;;;;;;9.95;68.43;101725.16;5105613;28;20447;-43
2022/09/25 03:06:21;;;;;;;10.25;3.30;;;;;;;9.92;68.40;101725.41;5105584;28;20054;-41
2022/09/25 03:08:57;;;;;;;4.47;3.35;;;;;;;9.91;68.22;101721.09;5095352;28;20043;-42
2022/09/25 03:11:30;;;;;;;8.63;3.30;;;;;;;9.96;68.40;101713.63;5100070;28;20065;-41
2022/09/25 03:14:04;;;;;;;9.13;3.80;;;;;;;9.97;68.12;101717.94;5100958;28;20049;-44
2022/09/25 03:16:42;;;;;;;10.10;4.45;;;;;;;10.02;68.12;101715.78;5074581;28;20043;-40
2022/09/25 03:19:18;;;;;;;7.25;4.45;;;;;;;10.05;68.20;101710.25;5088883;28;20442;-46
2022/09/25 03:21:53;;;;;;;9.43;3.67;;;;;;;10.02;68.22;101718.41;5089319;28;20455;-41
2022/09/25 03:24:25;;;;;;;6.85;3.47;;;;;;;9.98;68.31;101711.72;5102587;28;20137;-44
2022/09/25 03:26:59;;;;;;;17.02;4.10;;;;;;;10.00;68.25;101722.97;5102203;28;20065;-43
2022/09/25 03:29:32;;;;;;;9.73;3.55;;;;;;;10.01;68.35;101722.03;5103678;28;20073;-44
2022/09/25 03:32:05;;;;;;;6.43;3.08;;;;;;;9.92;68.21;101720.13;5103099;28;20090;-41
2022/09/25 03:34:37;;;;;;;8.55;3.30;;;;;;;9.91;68.48;101723.75;5088794;28;20842;-42
2022/09/25 03:37:11;;;;;;;12.02;4.18;;;;;;;9.91;68.52;101723.75;5086925;28;20407;-41
2022/09/25 03:39:45;;;;;;;15.23;4.22;;;;;;;9.87;68.55;101717.00;5098858;28;21952;-41
2022/09/25 03:42:18;;;;;;;12.35;3.40;;;;;;;9.83;68.47;101710.31;5061299;28;1225838;-42
2022/09/25 03:44:51;;;;;;;10.75;3.53;;;;;;;9.87;68.52;101717.00;5109885;28;20053;-42
2022/09/25 03:47:24;;;;;;;8.98;3.45;;;;;;;9.79;68.43;101709.72;5107628;28;20450;-45
2022/09/25 03:49:56;;;;;;;9.25;4.05;;;;;;;9.81;68.62;101712.22;5104081;28;20058;-41
2022/09/25 03:52:30;;;;;;;11.57;3.28;;;;;;;9.75;68.46;101712.72;5104733;28;20427;-42
2022/09/25 03:55:04;;;;;;;13.23;4.05;;;;;;;9.73;68.67;101714.66;5110261;28;20042;-46
2022/09/25 03:57:37;;;;;;;8.52;4.03;;;;;;;9.75;68.71;101718.00;5108992;28;20443;-41
2022/09/25 04:00:11;;;;;;;13.90;4.05;;;;;;;9.69;68.79;101709.63;5113544;28;20549;-42
2022/09/25 04:02:44;;;;;;;7.40;4.07;;;;;;;9.72;68.75;101708.53;5116750;28;20046;-42
2022/09/25 04:05:19;;;;;;;11.57;4.45;;;;;;;9.67;68.65;101705.44;5107369;28;20062;-43
2022/09/25 04:07:53;;;;;;;5.28;4.03;;;;;;;9.64;68.86;101695.97;5106427;28;20363;-43
2022/09/25 04:10:26;;;;;;;10.88;3.83;;;;;;;9.61;68.86;101696.22;5100638;28;20089;-44
2022/09/25 04:12:59;;;;;;;11.75;3.95;;;;;;;9.54;68.94;101695.03;5109226;28;20046;-42
2022/09/25 04:15:32;;;;;;;11.00;4.60;;;;;;;9.61;68.83;101704.13;5106814;28;20335;-46
2022/09/25 04:18:05;;;;;;;7.30;3.53;;;;;;;9.61;68.86;101700.66;5111428;28;20455;-42
2022/09/25 04:20:38;;;;;;;;;;;;;;;9.65;68.85;101702.91;5108495;28;20042;-42
2022/09/25 04:23:12;;;;;;;11.43;4.43;;;;;;;9.61;68.59;101696.22;5106507;28;20080;-45
2022/09/25 04:25:45;;;;;;;9.30;3.90;;;;;;;9.59;68.63;101684.09;5104211;28;20348;-40
2022/09/25 04:28:17;;;;;;;;;;;;;;;9.63;68.81;101698.72;5109994;28;20410;-42
2022/09/25 04:30:50;;;;;;;10.57;4.35;;;;;;;9.52;68.85;101681.13;5109001;28;19932;-45
2022/09/25 04:36:14;;;;;;;6.15;3.53;;;;;;;9.52;68.57;101678.47;5109223;28;20147;-44
2022/09/25 04:38:48;;;;;;;5.50;3.50;;;;;;;9.52;68.84;101680.28;5100577;28;20046;-42
2022/09/25 04:41:21;;;;;;;12.40;4.32;;;;;;;9.55;68.89;101688.78;5118750;28;20038;-42
2022/09/25 04:43:54;;;;;;;14.75;5.68;;;;;;;9.54;68.66;101684.47;5100927;28;20379;-42
2022/09/25 04:46:26;;;;;;;6.38;4.07;;;;;;;9.58;68.68;101696.44;5114287;28;20510;-43
2022/09/25 04:48:59;;;;;;;7.78;4.18;;;;;;;9.63;68.69;101703.97;5108196;28;20422;-43
2022/09/25 04:51:31;;;;;;;7.93;4.13;;;;;;;9.63;68.78;101702.22;5104302;28;21914;-44
2022/09/25 04:54:05;;;;;;;8.43;3.95;;;;;;;9.62;68.57;101692.59;5106675;28;20058;-41
2022/09/25 04:56:38;;;;;;;7.47;4.45;;;;;;;9.60;68.60;101691.03;5106727;28;20383;-46
2022/09/25 04:59:11;;;;;;;8.95;3.40;;;;;;;9.57;68.57;101678.97;5107375;28;20120;-45
2022/09/25 05:01:44;;;;;;;6.30;3.58;;;;;;;9.62;68.61;101687.31;5111462;28;20478;-41
2022/09/25 05:04:17;;;;;;;5.05;3.60;;;;;;;9.54;68.66;101684.47;5108573;28;20490;-42
2022/09/25 05:06:50;;;;;;;6.60;3.47;;;;;;;9.59;68.64;101692.84;5113415;28;20038;-40
2022/09/25 05:09:24;;;;;;;8.15;3.30;;;;;;;9.53;68.72;101680.16;5104085;28;20152;-41
2022/09/25 05:11:57;;;;;;;15.43;3.92;;;;;;;9.54;68.83;101688.88;5103944;28;20391;-42
2022/09/25 05:14:29;;;;;;;7.68;3.50;;;;;;;9.47;68.68;101689.38;5103094;28;20049;-42
2022/09/25 05:17:02;;;;;;;5.38;3.15;;;;;;;9.42;68.71;101681.00;5101531;28;20349;-41
2022/09/25 05:19:42;;;;;;;7.18;3.10;;;;;;;9.53;68.74;101693.34;5107919;28;20050;-43
2022/09/25 05:22:15;;;;;;;7.70;3.35;;;;;;;9.51;68.78;101695.28;5105906;28;20054;-44
2022/09/25 05:24:49;;;;;;;11.00;3.30;;;;;;;9.44;68.97;101694.06;5104784;28;20051;-42
2022/09/25 05:27:22;;;;;;;11.00;3.40;;;;;;;9.45;68.81;101695.75;5103117;28;20055;-41
2022/09/25 05:29:55;;;;;;;9.23;4.60;;;;;;;9.44;68.77;101694.06;5115304;28;20438;-42
2022/09/25 05:32:29;;;;;;;;;;;;;;;9.42;68.82;101696.84;5109755;28;20537;-41
2022/09/25 05:35:02;;;;;;;7.03;3.45;;;;;;;9.41;68.89;101694.31;5102126;28;20318;-41
2022/09/25 05:37:35;;;;;;;7.38;3.75;;;;;;;9.45;68.86;101701.03;5100521;28;20053;-43
2022/09/25 05:40:11;;;;;;;5.90;4.47;;;;;;;9.40;68.89;101682.09;5093336;28;20392;-42
2022/09/25 05:42:44;;;;;;;9.80;5.30;;;;;;;9.55;68.73;101707.25;5099517;28;20047;-45
2022/09/25 05:45:18;;;;;;;9.55;4.13;;;;;;;9.60;68.65;101691.91;5096575;28;20077;-41
2022/09/25 05:48:01;;;;;;;9.43;4.43;;;;;;;9.59;68.63;101692.84;5095182;28;20055;-45
2022/09/25 05:50:35;;;;;;;8.02;4.70;;;;;;;9.69;68.37;101693.81;5096537;28;20130;-45
2022/09/25 05:53:08;;;;;;;6.32;3.85;;;;;;;9.79;68.46;101698.34;5090142;28;20051;-48
2022/09/25 05:55:42;;;;;;;7.55;3.47;;;;;;;9.86;68.47;101710.91;5084106;28;20046;-42
2022/09/25 05:58:14;;;;;;;9.95;4.65;;;;;;;9.86;68.17;101695.06;5092946;28;20047;-43
2022/09/25 06:00:48;;;;;;;16.77;4.50;;;;;;;9.90;68.18;101685.09;5102764;28;20410;-40
2022/09/25 06:03:21;;;;;;;10.48;4.63;;;;;;;10.04;68.04;101692.75;5102018;28;20514;-40
2022/09/25 06:05:56;;;;;;;7.47;4.90;;;;;;;10.10;68.13;101694.88;5097636;28;20051;-39
2022/09/25 06:08:31;;;;;;;7.07;3.53;;;;;;;10.24;67.99;101703.47;5102924;28;20505;-42
2022/09/25 06:11:06;;;;;;;3.55;3.25;;;;;;;10.34;67.76;101684.13;5098983;28;20403;-45
2022/09/25 06:13:39;;;;;;;7.97;3.42;;;;;;;10.43;67.65;101682.50;5106080;28;20519;-43
2022/09/25 06:16:18;;;;;;;;;;;;;;;10.63;67.42;101685.31;5098201;28;21457;-43
2022/09/25 06:18:51;;;;;;;12.75;4.30;;;;;;;10.70;67.34;101684.66;5087300;28;20382;-43
2022/09/25 06:21:24;;;;;;;8.75;3.95;;;;;;;10.93;67.22;101687.13;5097111;28;20050;-43
2022/09/25 06:23:57;;;;;;;7.30;4.07;;;;;;;11.08;66.99;101699.03;5104840;28;20407;-40
2022/09/25 06:26:33;;;;;;;9.40;3.50;;;;;;;11.21;66.83;101691.75;5102390;28;20388;-42
2022/09/25 06:29:06;;;;;;;5.65;3.63;;;;;;;11.45;66.55;101691.38;5100196;28;20144;-43
2022/09/25 06:31:39;;;;;;;5.88;3.28;;;;;;;11.72;66.31;101703.16;5106169;28;20072;-47
2022/09/25 06:34:12;;;;;;;6.95;2.72;;;;;;;11.86;65.93;101700.16;5104809;28;20046;-43
2022/09/25 06:36:44;;;;;;;11.27;2.83;;;;;;;12.16;65.64;101706.31;5103709;28;20684;-46
2022/09/25 06:39:17;;;;;;;5.18;2.65;;;;;;;12.43;65.45;101703.81;5101950;28;20209;-40
2022/09/25 06:41:54;;;;;;;9.43;2.72;;;;;;;12.88;65.13;101713.78;5098544;28;20511;-41
2022/09/25 06:44:27;;;;;;;6.90;2.60;;;;;;;13.14;64.74;101697.22;5097925;28;20069;-43
2022/09/25 06:47:00;;;;;;;7.65;2.05;;;;;;;13.46;64.51;101694.16;5104456;28;20046;-45
2022/09/25 06:49:33;;;;;;;6.75;2.72;;;;;;;13.92;63.99;101707.47;5105625;28;20197;-41
2022/09/25 06:52:05;;;;;;;9.85;2.58;;;;;;;15.36;63.70;101698.22;5107833;28;20042;-42
2022/09/25 06:54:38;;;;;;;4.88;1.80;;;;;;;17.64;61.59;101691.13;5096130;28;20073;-42
2022/09/25 06:57:12;;;;;;;6.13;2.00;;;;;;;20.10;58.80;101692.97;5098156;28;20062;-40
2022/09/25 06:59:45;;;;;;;7.70;2.08;;;;;;;22.07;56.56;101698.84;5094467;28;20221;-43
2022/09/25 07:05:09;;;;;;;5.57;1.63;;;;;;;21.75;57.56;101688.84;5092048;28;20411;-44
2022/09/25 07:07:41;;;;;;;9.32;1.65;;;;;;;21.90;57.48;101684.13;5090835;28;20452;-44
2022/09/25 07:10:14;;;;;;;8.15;1.80;;;;;;;22.64;56.56;101682.31;5093845;28;20413;-45
2022/09/25 07:12:48;;;;;;;12.70;2.20;;;;;;;23.45;54.70;101690.81;5084562;28;20098;-45
2022/09/25 07:15:21;;;;;;;4.65;1.48;;;;;;;23.28;54.40;101673.47;5098763;28;20073;-40
2022/09/25 07:17:54;;;;;;;4.15;1.10;;;;;;;23.09;54.59;101690.53;5110692;28;20042;-41
2022/09/25 07:20:27;;;;;;;3.95;1.10;;;;;;;23.45;54.08;101674.63;5112856;28;20048;-46
2022/09/25 07:23:02;;;;;;;6.18;1.58;;;;;;;24.29;52.60;101680.75;5109335;28;20046;-42
2022/09/25 07:25:35;;;;;;;6.95;2.95;;;;;;;24.82;51.45;101685.69;5112133;28;20050;-43
2022/09/25 07:28:11;;;;;;;5.00;2.25;;;;;;;24.37;50.84;101696.69;5109489;28;20038;-45
2022/09/25 07:30:44;;;;;;;5.88;1.77;;;;;;;23.62;50.91;101693.00;5118234;28;20054;-44
2022/09/25 07:33:17;;;;;;;;;;;;;;;22.87;51.75;101688.06;5118870;28;20049;-46
2022/09/25 07:35:49;;;;;;;3.55;1.60;;;;;;;22.13;51.91;101685.59;5109105;28;20321;-45
2022/09/25 07:38:22;;;;;;;;;;;;;;;21.70;52.77;101680.56;5095580;28;20149;-37
2022/09/25 07:40:55;;;;;;;8.25;2.17;;;;;;;21.40;52.31;101691.66;5084148;28;19928;-48
2022/09/25 07:43:29;;;;;;;;;;;;;;;21.42;52.54;101686.88;5113459;28;20422;-45
2022/09/25 07:46:01;;;;;;;3.78;1.70;;;;;;;21.36;52.02;101682.31;5123853;28;20381;-46
2022/09/25 07:48:34;;;;;;;4.03;1.20;;;;;;;21.26;51.44;101681.81;5111429;28;20061;-47
2022/09/25 07:51:11;;;;;;;2.40;1.17;;;;;;;21.19;51.56;101684.50;5123670;28;20045;-43
2022/09/25 07:53:44;;;;;;;3.20;1.38;;;;;;;21.42;50.89;101687.72;5103022;28;20423;-44
2022/09/25 07:56:17;;;;;;;7.07;2.10;;;;;;;21.77;50.25;101681.41;5111113;28;20506;-46
2022/09/25 07:58:53;;;;;;;1.88;1.10;;;;;;;22.00;49.62;101686.41;5109065;28;20121;-46
2022/09/25 08:01:26;;;;;;;10.32;1.55;;;;;;;22.03;49.45;101697.59;5107801;28;20112;-44
2022/09/25 08:03:59;;;;;;;3.25;1.90;;;;;;;21.82;49.50;101689.69;5105723;28;20054;-46
2022/09/25 08:06:35;;;;;;;6.88;2.13;;;;;;;21.60;49.86;101697.09;5109408;28;20093;-46
2022/09/25 08:09:08;;;;;;;4.13;1.33;;;;;;;21.31;50.02;101696.31;5098034;28;20187;-45
2022/09/25 08:11:40;;;;;;;4.82;1.38;;;;;;;21.07;50.18;101716.44;5102488;28;20505;-46
2022/09/25 08:14:14;;;;;;;5.90;1.85;;;;;;;20.63;50.41;101714.91;5126490;28;20058;-45
2022/09/25 08:16:47;;;;;;;5.20;1.70;;;;;;;20.36;50.78;101702.28;5112776;28;20046;-44
2022/09/25 08:19:22;;;;;;;11.63;1.75;;;;;;;20.69;50.48;101703.41;5098392;28;20154;-43
2022/09/25 08:21:54;;;;;;;9.80;2.58;;;;;;;21.22;49.86;101696.69;5091974;28;20093;-45
2022/09/25 08:24:27;;;;;;;5.03;2.08;;;;;;;21.86;49.36;101709.75;5092912;28;20141;-45
2022/09/25 08:27:00;;;;;;;8.07;1.92;;;;;;;23.01;48.25;101700.50;5095468;28;20329;-46
2022/09/25 08:29:34;;;;;;;9.05;1.88;;;;;;;24.64;46.59;101696.47;5094282;28;20074;-47
2022/09/25 08:32:07;;;;;;;7.25;1.48;;;;;;;26.14;44.87;101698.59;5093792;28;20069;-48
2022/09/25 08:34:41;;;;;;;6.35;1.73;;;;;;;27.33;43.61;101694.78;5095873;28;20143;-48
2022/09/25 08:37:14;;;;;;;5.43;1.42;;;;;;;28.26;42.35;101689.97;5103200;28;20068;-46
2022/09/25 08:39:46;;;;;;;4.65;1.10;;;;;;;28.94;41.58;101698.84;5094967;28;20137;-46
2022/09/25 08:42:21;;;;;;;;;;;;;;;29.55;40.84;101698.81;5095659;28;20107;-46
2022/09/25 08:50:34;;;;;;;2.95;1.20;;;;;;;30.13;39.58;101696.34;5088270;28;20065;-44
2022/09/25 08:53:21;;;;;;;5.07;1.30;;;;;;;30.14;37.29;101696.13;5090083;28;20057;-48
2022/09/25 08:58:52;;;;;;;4.05;1.42;;;;;;;29.77;36.89;101690.63;5087605;28;20508;-45
2022/09/25 09:01:29;;;;;;;2.45;0.98;;;;;;;29.37;37.17;101687.16;5093185;28;20046;-46
2022/09/25 09:04:06;;;;;;;2.78;1.13;;;;;;;29.05;36.73;101688.94;5100221;28;20114;-44
2022/09/25 09:06:41;;;;;;;8.10;1.30;;;;;;;28.97;36.85;101690.19;5099917;28;20434;-48
2022/09/25 09:12:08;;;;;;;1.02;0.57;;;;;;;23.34;34.50;101688.78;4957532;27;59901;-54
2022/09/25 09:14:45;;;;;;;2.88;0.60;;;;;;;24.11;32.25;101686.91;4965219;28;66574;-54
2022/09/25 09:17:22;;;;;;;3.80;0.70;;;;;;;23.38;34.67;101687.31;5168101;28;20373;-53
2022/09/25 09:19:59;;;;;;;3.05;0.90;;;;;;;22.98;36.88;101683.94;5103216;28;20450;-48
2022/09/25 09:22:39;;;;;;;20.10;2.35;;;;;;;22.84;36.63;101687.66;5096526;28;20043;-52
2022/09/25 09:25:28;;;;;;;2.65;0.75;;;;;;;21.88;37.53;101676.25;5074846;28;20058;-55
2022/09/25 09:28:22;;;;;;;21.33;2.55;;;;;;;21.47;39.76;101689.81;4942443;28;20080;-52
2022/09/25 09:31:03;;;;;;;10.85;1.50;;;;;;;20.75;40.36;101687.53;5001979;28;20049;-53
2022/09/25 09:33:48;;;;;;;2.45;0.80;;;;;;;20.30;40.96;101695.00;5071311;28;20370;-54
2022/09/25 09:36:31;;;;;;;4.75;0.80;;;;;;;19.27;42.50;101695.09;5135720;28;20049;-51
2022/09/25 09:39:14;;;;;;;3.13;0.95;;;;;;;18.78;44.11;101697.50;5146498;28;20338;-52
2022/09/25 09:42:01;;;;;;;7.95;1.50;;;;;;;19.59;52.37;101695.69;5118502;28;20053;-52
2022/09/25 09:44:57;;;;;;;4.18;0.93;;;;;;;21.53;44.80;101686.31;4607884;28;20462;-50
2022/09/25 09:47:42;;;;;;;3.08;1.02;;;;;;;22.28;42.42;101683.56;5153920;28;20370;-51
2022/09/25 09:50:29;;;;;;;4.03;1.00;;;;;;;22.49;41.27;101688.75;5167725;28;20397;-52
2022/09/25 09:53:05;;;;;;;2.05;0.60;;;;;;;22.39;40.23;101691.03;5187979;27;20041;-52
2022/09/25 09:55:44;;;;;;;4.22;1.15;;;;;;;22.29;40.13;101688.75;5188512;28;20051;-48
2022/09/25 09:58:22;;;;;;;3.25;0.80;;;;;;;22.30;39.50;101692.28;5187938;28;20059;-48
2022/09/25 10:00:57;;;;;;;2.47;1.02;;;;;;;22.25;39.26;101684.81;5191636;28;20045;-51
2022/09/25 10:03:33;;;;;;;2.38;0.93;;;;;;;22.17;39.53;101684.19;5189772;28;20365;-51
2022/09/25 10:06:10;;;;;;;3.78;0.80;;;;;;;22.04;39.39;101676.91;5192271;28;20455;-51
2022/09/25 10:08:43;;;;;;;2.58;0.55;;;;;;;21.93;39.30;101677.53;5179257;28;20053;-49
2022/09/25 10:11:18;;;;;;;2.30;1.08;;;;;;;21.75;37.88;101667.34;5196310;28;20043;-50
2022/09/25 10:13:50;;;;;;;5.50;1.33;;;;;;;21.73;38.01;101670.22;5192130;28;20442;-48
2022/09/25 10:16:25;;;;;;;7.03;1.45;;;;;;;21.72;37.42;101657.81;5195699;28;20231;-47
2022/09/25 10:19:05;;;;;;;2.65;0.95;;;;;;;21.69;37.71;101663.59;5184008;28;20478;-51
2022/09/25 10:21:40;;;;;;;4.07;0.73;;;;;;;21.68;37.66;101645.84;5186454;28;20351;-49
2022/09/25 10:24:54;;;;;;;1.60;1.17;;;;;;;21.58;37.54;101623.88;5172755;28;20065;-46
2022/09/25 10:27:32;;;;;;;7.18;1.20;;;;;;;21.61;37.50;101653.84;5171763;28;20111;-50
2022/09/25 10:30:19;;;;;;;3.22;0.95;;;;;;;21.64;37.82;101656.13;5171823;28;20138;-50
2022/09/25 10:32:59;;;;;;;5.07;1.23;;;;;;;21.81;37.79;101656.59;5174894;28;20490;-51
2022/09/25 10:35:44;;;;;;;1.92;0.70;;;;;;;21.98;37.87;101648.13;5176311;28;20037;-49
2022/09/25 10:38:37;;;;;;;2.22;0.75;;;;;;;21.80;37.76;101617.31;5176744;28;20049;-48
2022/09/25 10:41:13;;;;;;;6.18;1.45;;;;;;;21.92;37.85;101646.25;5174691;28;20408;-52
2022/09/25 10:43:54;;;;;;;3.58;1.33;;;;;;;22.01;38.03;101637.78;5173547;28;20446;-49
2022/09/25 10:52:13;;;;;;;6.07;1.05;;;;;;;22.64;37.44;101639.22;5177326;28;20052;-49
2022/09/25 10:54:46;;;;;;;1.95;0.95;;;;;;;22.83;37.21;101627.59;5172336;28;20053;-48
2022/09/25 10:57:33;;;;;;;;;;;;;;;23.04;36.90;101633.75;5183674;28;20432;-46
2022/09/25 11:00:21;;;;;;;2.33;0.60;;;;;;;22.99;36.01;101624.44;5178758;28;20010;-46
2022/09/25 11:02:56;;;;;;;2.03;0.50;;;;;;;22.68;36.29;101613.56;5163477;28;20053;-52
2022/09/25 11:05:31;;;;;;;2.83;0.60;;;;;;;22.40;36.70;101621.88;5167575;28;20446;-46
2022/09/25 11:08:08;;;;;;;2.95;0.82;;;;;;;21.93;37.65;101632.63;5175452;28;20454;-50
2022/09/25 11:10:51;;;;;;;5.78;1.42;;;;;;;21.58;38.09;101643.50;5175313;28;20051;-48
2022/09/25 11:13:29;;;;;;;1.13;0.85;;;;;;;21.04;37.81;101612.09;5174855;28;20046;-45
2022/09/25 11:16:03;;;;;;;1.98;0.73;;;;;;;20.62;40.39;101640.78;5167008;28;20041;-48
2022/09/25 11:18:40;;;;;;;6.03;1.23;;;;;;;20.02;41.80;101639.47;5177932;28;20458;-50
2022/09/25 11:21:23;;;;;;;3.33;0.95;;;;;;;19.46;44.10;101645.47;5182819;28;20238;-48
2022/09/25 11:24:09;;;;;;;5.03;1.35;;;;;;;19.02;45.09;101653.59;5170600;28;20494;-47
2022/09/25 11:26:49;;;;;;;5.13;1.30;;;;;;;18.60;46.75;101649.66;5179266;28;20037;-49
2022/09/25 11:29:32;;;;;;;7.25;1.38;;;;;;;18.19;47.34;101652.69;5181097;28;20059;-49
2022/09/25 11:32:15;;;;;;;2.75;0.95;;;;;;;17.96;48.05;101655.38;5167219;28;20461;-46
2022/09/25 11:35:11;;;;;;;4.85;1.48;;;;;;;17.79;47.45;101657.34;5176821;28;20545;-49
2022/09/25 11:37:52;;;;;;;3.03;1.45;;;;;;;17.78;47.39;101661.03;5177707;28;20413;-48
2022/09/25 11:43:50;;;;;;;4.75;1.95;;;;;;;17.93;47.34;101648.56;5173327;28;20477;-50
2022/09/25 11:46:32;;;;;;;3.13;1.40;;;;;;;17.85;47.40;101629.09;5172673;28;20049;-50
2022/09/25 11:49:14;;;;;;;2.92;1.23;;;;;;;18.08;47.16;101635.22;5181352;28;20029;-45
2022/09/25 11:52:17;;;;;;;3.85;1.25;;;;;;;18.26;47.17;101642.94;5175532;28;20072;-49
2022/09/25 11:55:17;;;;;;;1.70;1.13;;;;;;;18.42;46.97;101640.09;5180159;28;20365;-47
2022/09/25 11:58:00;;;;;;;3.30;1.17;;;;;;;18.57;47.12;101639.31;5167116;28;20658;-50
2022/09/25 12:00:43;;;;;;;5.03;1.17;;;;;;;18.70;47.20;101636.81;5180825;28;20143;-46
2022/09/25 12:03:44;;;;;;;4.43;1.27;;;;;;;18.82;47.45;101632.69;5179391;28;20065;-49
2022/09/25 12:06:47;;;;;;;10.57;2.10;;;;;;;18.91;47.26;101624.59;5180188;28;20045;-47
2022/09/25 12:09:42;;;;;;;4.78;1.92;;;;;;;19.07;47.12;101629.72;5166255;28;20256;-47
2022/09/25 12:12:23;;;;;;;2.25;1.45;;;;;;;19.18;47.05;101620.41;5171744;28;20438;-47
2022/09/25 12:15:05;;;;;;;4.07;2.03;;;;;;;19.34;47.34;101621.00;5171557;28;20049;-50
2022/09/25 12:17:49;;;;;;;4.82;1.73;;;;;;;19.50;47.21;101611.09;5174795;28;20545;-50
2022/09/25 12:20:33;;;;;;;7.03;2.28;;;;;;;19.59;46.85;101616.13;5177640;28;20801;-48
2022/09/25 12:23:19;;;;;;;3.78;2.55;;;;;;;19.64;46.95;101610.25;5181362;28;20450;-50
2022/09/25 12:26:14;;;;;;;4.68;2.20;;;;;;;19.72;47.06;101606.59;5175425;28;20438;-50
2022/09/25 12:29:09;;;;;;;6.68;1.40;;;;;;;19.73;46.81;101603.75;5176294;28;20045;-49
2022/09/25 12:31:56;;;;;;;7.82;1.83;;;;;;;19.73;47.01;101598.38;5178004;28;20044;-51
2022/09/25 12:34:49;;;;;;;2.70;1.65;;;;;;;19.77;47.02;101599.66;5177296;28;20469;-49
2022/09/25 12:37:31;;;;;;;3.10;1.47;;;;;;;19.80;47.01;101593.91;5180995;28;20444;-49
2022/09/25 12:40:17;;;;;;;4.07;1.48;;;;;;;19.86;47.02;101591.47;5167325;28;20462;-52
2022/09/25 12:42:57;;;;;;;11.02;2.90;;;;;;;19.89;47.07;101585.75;5170892;28;20405;-47
2022/09/25 12:45:37;;;;;;;2.75;1.92;;;;;;;19.85;47.02;101581.75;5173885;28;20047;-51
2022/09/25 12:48:15;;;;;;;4.03;1.85;;;;;;;19.89;46.95;101581.19;5180221;28;20131;-51